createdAt,value
2022-10-11T00:06:43.521Z,16.54
2022-10-11T00:27:47.370Z,15.60
2022-10-11T00:30:57.793Z,15.38
2022-10-11T00:41:01.394Z,15.10
2022-10-11T00:47:24.756Z,15.35
2022-10-11T00:50:04.253Z,15.69
2022-10-11T01:19:54.345Z,15.51
2022-10-11T01:26:29.336Z,16.20
2022-10-11T01:30:03.058Z,16.22
2022-10-11T01:32:44.999Z,16.05
2022-10-11T01:35:45.842Z,15.94
2022-10-11T01:38:33.954Z,15.48
2022-10-11T01:41:29.148Z,15.56
2022-10-11T01:51:29.441Z,15.34
2022-10-11T01:55:04.375Z,16.06
2022-10-11T01:57:51.969Z,16.01
2022-10-11T02:04:25.316Z,15.53
2022-10-11T02:10:54.458Z,15.68
2022-10-11T02:13:41.300Z,15.78
2022-10-11T02:16:25.685Z,15.63
2022-10-11T02:19:07.009Z,15.86
2022-10-11T02:22:04.073Z,15.85
2022-10-11T02:24:46.387Z,15.86
2022-10-11T02:27:30.549Z,15.92
2022-10-11T02:30:15.964Z,15.71
2022-10-11T02:32:56.407Z,15.94
2022-10-11T02:35:41.582Z,15.95
2022-10-11T02:38:25.036Z,15.73
2022-10-11T02:41:32.482Z,15.96
2022-10-11T02:44:20.112Z,15.94
2022-10-11T02:47:00.551Z,15.87
2022-10-11T02:49:39.881Z,15.97
2022-10-11T02:52:19.497Z,15.42
2022-10-11T03:05:22.860Z,15.60
2022-10-11T03:08:01.154Z,15.75
2022-10-11T03:10:39.379Z,15.70
2022-10-11T03:13:18.622Z,15.78
2022-10-11T03:16:03.248Z,15.71
2022-10-11T03:18:42.479Z,15.25
2022-10-11T03:21:21.717Z,15.79
2022-10-11T03:24:00.006Z,15.57
2022-10-11T03:26:38.160Z,15.43
2022-10-11T03:29:16.401Z,15.59
2022-10-11T03:31:56.391Z,15.55
2022-10-11T03:34:34.296Z,15.62
2022-10-11T03:37:14.305Z,15.66
2022-10-11T03:39:53.572Z,15.07
2022-10-11T03:42:32.471Z,15.62
2022-10-11T03:45:10.930Z,15.37
2022-10-11T03:47:50.159Z,15.62
2022-10-11T03:50:28.819Z,15.51
2022-10-11T04:03:46.946Z,15.17
2022-10-11T04:06:26.320Z,15.21
2022-10-11T04:09:05.226Z,15.12
2022-10-11T04:11:43.294Z,15.08
2022-10-11T04:24:45.272Z,14.65
2022-10-11T04:27:29.528Z,14.55
2022-10-11T04:30:19.669Z,14.24
2022-10-11T04:33:00.371Z,14.79
2022-10-11T04:35:38.696Z,14.73
2022-10-11T04:38:16.874Z,14.68
2022-10-11T04:40:56.030Z,14.86
2022-10-11T04:43:35.528Z,14.89
2022-10-11T04:46:14.693Z,15.05
2022-10-11T04:48:52.920Z,14.85
2022-10-11T04:51:31.090Z,14.96
2022-10-11T04:54:09.419Z,15.03
2022-10-11T04:56:47.800Z,14.94
2022-10-11T04:59:25.820Z,14.94
2022-10-11T05:02:05.518Z,14.65
2022-10-11T05:04:43.745Z,14.34
2022-10-11T05:07:21.925Z,14.42
2022-10-11T05:10:00.086Z,14.48
2022-10-11T05:12:38.474Z,14.52
2022-10-11T05:15:18.122Z,14.63
2022-10-11T05:17:57.237Z,14.78
2022-10-11T05:20:37.009Z,14.85
2022-10-11T05:23:15.823Z,14.84
2022-10-11T05:25:54.274Z,14.86
2022-10-11T05:28:32.835Z,15.06
2022-10-11T05:31:13.476Z,15.00
2022-10-11T05:33:51.935Z,14.89
2022-10-11T05:36:30.209Z,14.74
2022-10-11T05:39:23.035Z,14.68
2022-10-11T05:42:01.445Z,14.99
2022-10-11T05:44:39.823Z,15.05
2022-10-11T05:47:18.978Z,15.11
2022-10-11T05:49:59.153Z,15.01
2022-10-11T05:52:37.461Z,14.98
2022-10-11T05:55:15.988Z,14.74
2022-10-11T05:57:58.032Z,14.85
2022-10-11T06:00:40.720Z,14.63
2022-10-11T06:03:21.176Z,14.54
2022-10-11T06:06:03.479Z,14.69
2022-10-11T06:08:44.592Z,14.49
2022-10-11T06:11:26.468Z,14.37
2022-10-11T06:14:20.157Z,14.48
2022-10-11T06:17:15.469Z,14.61
2022-10-11T06:20:08.290Z,14.92
2022-10-11T06:23:06.201Z,15.01
2022-10-11T06:26:08.606Z,15.26
2022-10-11T06:29:07.456Z,15.46
2022-10-11T06:32:03.347Z,15.26
2022-10-11T06:34:57.224Z,15.49
2022-10-11T06:37:52.712Z,15.62
2022-10-11T06:41:14.155Z,15.71
2022-10-11T06:44:14.510Z,15.66
2022-10-11T06:47:07.657Z,15.38
2022-10-11T06:50:06.438Z,15.56
2022-10-11T06:53:02.790Z,15.75
2022-10-11T06:56:08.677Z,15.89
2022-10-11T06:59:01.943Z,15.80
2022-10-11T07:01:54.694Z,15.73
2022-10-11T07:04:46.396Z,15.96
2022-10-11T07:07:44.029Z,15.99
2022-10-11T07:10:40.925Z,16.25
2022-10-11T07:13:34.081Z,16.33
2022-10-11T07:16:36.593Z,16.40
2022-10-11T07:19:32.167Z,16.47
2022-10-11T07:22:27.484Z,16.43
2022-10-11T07:25:26.132Z,16.86
2022-10-11T07:28:21.202Z,16.92
2022-10-11T07:31:20.624Z,16.94
2022-10-11T07:34:12.400Z,16.99
2022-10-11T07:37:08.840Z,17.10
2022-10-11T07:40:01.760Z,17.12
2022-10-11T07:42:53.322Z,17.09
2022-10-11T07:46:19.253Z,17.09
2022-10-11T07:49:15.759Z,17.24
2022-10-11T07:52:23.556Z,17.26
2022-10-11T07:55:22.565Z,17.30
2022-10-11T07:58:14.478Z,17.45
2022-10-11T08:01:10.286Z,17.59
2022-10-11T08:04:06.055Z,17.58
2022-10-11T08:07:13.944Z,17.52
2022-10-11T08:10:10.131Z,17.73
2022-10-11T08:13:06.741Z,17.81
2022-10-11T08:16:10.118Z,17.82
2022-10-11T08:19:24.764Z,17.81
2022-10-11T08:22:25.813Z,17.67
2022-10-11T08:25:29.499Z,17.69
2022-10-11T08:28:25.605Z,17.86
2022-10-11T08:31:28.669Z,18.00
2022-10-11T08:34:24.338Z,17.91
2022-10-11T08:37:16.542Z,18.03
2022-10-11T08:40:24.416Z,18.01
2022-10-11T08:43:35.168Z,18.13
2022-10-11T08:46:35.453Z,18.11
2022-10-11T08:49:33.648Z,18.06
2022-10-11T08:52:05.176Z,18.13
2022-10-11T08:55:18.352Z,18.21
2022-10-11T08:57:53.332Z,18.12
2022-10-11T09:00:21.416Z,18.08
2022-10-11T09:03:08.453Z,18.01
2022-10-11T09:05:49.549Z,17.68
2022-10-11T09:08:39.984Z,18.15
2022-10-11T09:11:28.990Z,18.07
2022-10-11T09:14:19.428Z,18.06
2022-10-11T09:16:58.693Z,17.98
2022-10-11T09:19:25.737Z,18.00
2022-10-11T09:22:30.259Z,18.03
2022-10-11T09:25:16.744Z,17.91
2022-10-11T09:28:02.457Z,17.95
2022-10-11T09:30:30.864Z,18.05
2022-10-11T09:33:24.648Z,18.15
2022-10-11T09:35:52.943Z,18.20
2022-10-11T09:39:06.316Z,18.15
2022-10-11T09:41:45.679Z,18.16
2022-10-11T09:44:23.759Z,18.21
2022-10-11T09:46:54.604Z,18.29
2022-10-11T09:49:25.515Z,18.31
2022-10-11T09:51:56.492Z,18.25
2022-10-11T09:54:41.389Z,18.30
2022-10-11T09:57:25.023Z,18.21
2022-10-11T10:00:27.984Z,18.09
2022-10-11T10:03:01.428Z,17.98
2022-10-11T10:05:31.710Z,17.86
2022-10-11T10:08:22.736Z,17.25
2022-10-11T10:10:59.684Z,17.85
2022-10-11T10:13:46.226Z,17.96
2022-10-11T10:16:27.421Z,18.02
2022-10-11T10:19:17.260Z,17.97
2022-10-11T10:21:48.465Z,17.96
2022-10-11T10:24:24.869Z,18.04
2022-10-11T10:27:16.994Z,18.02
2022-10-11T10:29:59.692Z,18.05
2022-10-11T10:32:36.130Z,18.11
2022-10-11T10:35:12.291Z,18.15
2022-10-11T10:37:51.647Z,18.03
2022-10-11T10:40:39.484Z,18.27
2022-10-11T10:43:09.100Z,18.46
2022-10-11T10:46:08.446Z,18.49
2022-10-11T10:52:43.752Z,18.75
2022-10-11T10:55:38.485Z,18.90
2022-10-11T10:58:28.123Z,18.98
2022-10-11T11:01:05.545Z,18.99
2022-10-11T11:04:07.638Z,19.18
2022-10-11T11:06:55.668Z,19.20
2022-10-11T11:09:36.225Z,19.29
2022-10-11T11:12:31.248Z,19.40
2022-10-11T11:15:04.563Z,19.39
2022-10-11T11:18:03.819Z,19.23
2022-10-11T11:20:42.872Z,19.44
2022-10-11T11:23:16.121Z,19.42
2022-10-11T11:25:56.189Z,19.48
2022-10-11T11:28:42.749Z,19.34
2022-10-11T11:31:15.861Z,19.25
2022-10-11T11:34:15.315Z,19.23
2022-10-11T11:37:00.399Z,19.24
2022-10-11T11:39:35.880Z,19.19
2022-10-11T11:42:09.557Z,19.24
2022-10-11T11:44:41.650Z,19.25
2022-10-11T11:47:26.675Z,19.33
2022-10-11T11:50:20.958Z,19.37
2022-10-11T11:52:58.175Z,19.35
2022-10-11T11:55:43.650Z,19.27
2022-10-11T11:58:50.707Z,19.51
2022-10-11T12:01:26.460Z,19.50
2022-10-11T12:04:03.085Z,19.52
2022-10-11T12:06:33.591Z,19.56
2022-10-11T12:09:04.024Z,19.61
2022-10-11T12:11:42.541Z,19.61
2022-10-11T12:14:22.546Z,19.51
2022-10-11T12:17:14.499Z,19.54
2022-10-11T12:20:00.008Z,19.34
2022-10-11T12:22:27.093Z,19.56
2022-10-11T12:25:09.439Z,19.60
2022-10-11T12:27:41.257Z,19.60
2022-10-11T12:30:51.036Z,19.51
2022-10-11T12:33:23.449Z,19.55
2022-10-11T12:35:53.647Z,19.55
2022-10-11T12:38:28.568Z,19.54
2022-10-11T12:40:57.279Z,19.63
2022-10-11T12:43:26.461Z,19.68
2022-10-11T12:45:53.780Z,19.65
2022-10-11T12:48:34.889Z,19.48
2022-10-11T12:51:36.830Z,19.41
2022-10-11T12:54:30.029Z,19.61
2022-10-11T12:57:31.074Z,19.63
2022-10-11T13:00:19.030Z,19.71
2022-10-11T13:02:47.380Z,19.71
2022-10-11T13:05:35.245Z,19.84
2022-10-11T13:08:05.584Z,19.38
2022-10-11T13:10:44.252Z,19.46
2022-10-11T13:13:29.857Z,19.51
2022-10-11T13:15:59.977Z,19.58
2022-10-11T13:18:27.579Z,19.49
2022-10-11T13:20:54.922Z,19.62
2022-10-11T13:23:28.681Z,19.63
2022-10-11T13:25:56.794Z,19.58
2022-10-11T13:28:24.222Z,19.62
2022-10-11T13:30:56.576Z,19.67
2022-10-11T13:33:33.721Z,19.41
2022-10-11T13:36:03.235Z,19.73
2022-10-11T13:38:36.943Z,19.76
2022-10-11T13:41:05.608Z,19.78
2022-10-11T13:43:34.398Z,19.79
2022-10-11T13:46:06.430Z,19.77
2022-10-11T13:48:41.156Z,19.77
2022-10-11T13:51:27.522Z,19.80
2022-10-11T13:54:01.193Z,19.42
2022-10-11T13:56:31.853Z,19.63
2022-10-11T13:59:00.449Z,19.68
2022-10-11T14:01:36.286Z,19.81
2022-10-11T14:04:07.080Z,19.64
2022-10-11T14:06:46.406Z,19.82
2022-10-11T14:09:38.514Z,19.86
2022-10-11T14:12:33.604Z,19.86
2022-10-11T14:15:04.150Z,19.83
2022-10-11T14:17:43.464Z,19.79
2022-10-11T14:20:34.493Z,19.62
2022-10-11T14:23:08.249Z,19.35
2022-10-11T14:25:35.687Z,19.18
2022-10-11T14:28:02.902Z,19.61
2022-10-11T14:30:31.733Z,19.40
2022-10-11T14:33:01.723Z,19.65
2022-10-11T14:35:32.706Z,19.48
2022-10-11T14:38:00.456Z,19.50
2022-10-11T14:40:30.477Z,19.53
2022-10-11T14:42:57.935Z,19.35
2022-10-11T14:45:25.618Z,19.41
2022-10-11T14:47:52.963Z,19.41
2022-10-11T14:50:29.201Z,19.44
2022-10-11T14:52:56.755Z,19.44
2022-10-11T14:55:24.805Z,19.44
2022-10-11T14:57:52.116Z,19.37
2022-10-11T15:00:23.302Z,19.45
2022-10-11T15:02:52.806Z,19.38
2022-10-11T15:05:21.485Z,19.22
2022-10-11T15:07:50.084Z,19.32
2022-10-11T15:10:20.358Z,19.38
2022-10-11T15:12:51.937Z,19.39
2022-10-11T15:15:23.538Z,19.41
2022-10-11T15:17:56.593Z,19.04
2022-10-11T15:20:33.764Z,19.40
2022-10-11T15:23:01.461Z,19.38
2022-10-11T15:25:29.741Z,19.20
2022-10-11T15:27:57.706Z,18.83
2022-10-11T15:30:31.468Z,18.95
2022-10-11T15:33:01.772Z,19.31
2022-10-11T15:35:29.896Z,19.35
2022-10-11T15:37:59.695Z,19.38
2022-10-11T15:40:37.070Z,19.41
2022-10-11T15:43:04.734Z,19.39
2022-10-11T15:45:31.845Z,19.35
2022-10-11T15:47:59.335Z,19.32
2022-10-11T15:50:37.583Z,19.21
2022-10-11T15:53:08.436Z,19.03
2022-10-11T15:55:51.624Z,18.46
2022-10-11T16:01:33.056Z,18.30
2022-10-11T16:04:00.458Z,18.63
2022-10-11T16:06:28.622Z,18.82
2022-10-11T16:08:55.906Z,18.68
2022-10-11T16:11:23.755Z,18.34
2022-10-11T16:13:51.568Z,18.65
2022-10-11T16:16:19.156Z,18.07
2022-10-11T16:18:46.453Z,18.29
2022-10-11T16:21:15.662Z,18.61
2022-10-11T16:23:43.156Z,18.39
2022-10-11T16:26:14.004Z,18.65
2022-10-11T16:28:42.286Z,18.66
2022-10-11T16:31:13.319Z,18.68
2022-10-11T16:33:46.086Z,18.47
2022-10-11T16:36:34.180Z,18.63
2022-10-11T16:39:04.769Z,18.69
2022-10-11T16:41:32.054Z,18.58
2022-10-11T16:43:59.885Z,18.63
2022-10-11T16:46:27.113Z,18.33
2022-10-11T16:48:58.612Z,18.42
2022-10-11T16:51:25.982Z,18.59
2022-10-11T16:53:53.554Z,18.63
2022-10-11T16:56:24.257Z,18.63
2022-10-11T16:58:53.371Z,18.61
2022-10-11T17:01:21.440Z,18.49
2022-10-11T17:03:49.670Z,18.51
2022-10-11T17:06:17.584Z,18.56
2022-10-11T17:08:45.166Z,18.55
2022-10-11T17:11:17.075Z,18.54
2022-10-11T17:13:45.899Z,18.26
2022-10-11T17:16:13.572Z,18.35
2022-10-11T17:18:43.454Z,18.47
2022-10-11T17:21:24.073Z,17.84
2022-10-11T17:23:51.617Z,17.90
2022-10-11T17:26:21.925Z,18.21
2022-10-11T17:28:49.305Z,18.44
2022-10-11T17:31:20.901Z,17.82
2022-10-11T17:33:55.542Z,17.80
2022-10-11T17:36:34.820Z,18.29
2022-10-11T17:39:12.194Z,18.04
2022-10-11T17:44:52.347Z,17.39
2022-10-11T17:55:11.987Z,16.03
2022-10-11T17:57:59.151Z,17.72
2022-10-11T18:00:26.379Z,17.83
2022-10-11T18:02:56.551Z,17.86
2022-10-11T18:05:24.460Z,17.82
2022-10-11T18:07:55.274Z,17.94
2022-10-11T18:10:23.412Z,17.93
2022-10-11T18:12:54.852Z,17.83
2022-10-11T18:15:22.057Z,17.61
2022-10-11T18:17:49.165Z,17.37
2022-10-11T18:20:16.601Z,17.10
2022-10-11T18:22:43.803Z,17.24
2022-10-11T18:25:10.948Z,17.36
2022-10-11T18:27:38.256Z,17.39
2022-10-11T18:30:06.156Z,17.32
2022-10-11T18:32:33.429Z,17.42
2022-10-11T18:35:00.612Z,17.51
2022-10-11T18:37:29.711Z,17.45
2022-10-11T18:39:56.975Z,17.33
2022-10-11T18:42:24.160Z,16.93
2022-10-11T18:44:51.409Z,16.49
2022-10-11T18:47:18.496Z,16.60
2022-10-11T18:49:45.705Z,16.52
2022-10-11T18:52:12.939Z,16.63
2022-10-11T18:54:40.147Z,16.54
2022-10-11T18:57:07.284Z,16.43
2022-10-11T18:59:34.452Z,16.66
2022-10-11T19:02:01.721Z,16.66
2022-10-11T19:04:33.349Z,16.13
2022-10-11T19:07:01.594Z,15.91
2022-10-11T19:09:30.881Z,15.93
2022-10-11T19:11:58.775Z,16.31
2022-10-11T19:14:29.136Z,16.04
2022-10-11T19:16:59.680Z,16.03
2022-10-11T19:19:29.637Z,16.11
2022-10-11T19:21:57.535Z,16.79
2022-10-11T19:24:28.005Z,16.84
2022-10-11T19:27:01.213Z,16.64
2022-10-11T19:29:29.989Z,16.72
2022-10-11T19:32:00.131Z,16.60
2022-10-11T19:34:28.916Z,16.27
2022-10-11T19:36:56.866Z,16.40
2022-10-11T19:39:24.894Z,16.53
2022-10-11T19:41:52.719Z,16.60
2022-10-11T19:44:20.515Z,16.59
2022-10-11T19:46:52.348Z,16.73
2022-10-11T19:49:24.063Z,16.48
2022-10-11T19:51:52.408Z,16.54
2022-10-11T19:54:20.057Z,16.70
2022-10-11T19:56:47.882Z,16.70
2022-10-11T19:59:15.813Z,16.74
2022-10-11T20:01:46.643Z,16.72
2022-10-11T20:04:39.579Z,16.58
2022-10-11T20:07:02.513Z,16.56
2022-10-11T20:09:30.764Z,16.30
2022-10-11T20:11:59.128Z,16.45
2022-10-11T20:14:26.873Z,16.02
2022-10-11T20:16:54.298Z,16.42
2022-10-11T20:19:26.303Z,16.65
2022-10-11T20:21:55.469Z,16.63
2022-10-11T20:24:22.616Z,16.60
2022-10-11T20:26:49.840Z,16.70
2022-10-11T20:29:17.424Z,16.75
2022-10-11T20:31:44.850Z,16.44
2022-10-11T20:34:12.357Z,16.71
2022-10-11T20:36:39.624Z,16.72
2022-10-11T20:39:06.873Z,16.81
2022-10-11T20:41:40.110Z,16.69
2022-10-11T20:44:07.976Z,16.72
2022-10-11T20:46:38.217Z,16.83
2022-10-11T20:49:11.414Z,16.89
2022-10-11T20:51:41.802Z,16.81
2022-10-11T20:54:09.947Z,16.60
2022-10-11T20:56:38.310Z,16.36
2022-10-11T20:59:06.370Z,16.63
2022-10-11T21:01:37.585Z,16.34
2022-10-11T21:04:08.609Z,16.33
2022-10-11T21:06:36.020Z,16.42
2022-10-11T21:09:03.380Z,16.69
2022-10-11T21:11:36.561Z,16.50
2022-10-11T21:14:06.518Z,16.21
2022-10-11T21:16:37.753Z,16.66
2022-10-11T21:19:12.140Z,16.78
2022-10-11T21:21:39.649Z,16.76
2022-10-11T21:24:06.906Z,16.78
2022-10-11T21:26:35.456Z,16.46
2022-10-11T21:29:04.241Z,16.57
2022-10-11T21:31:34.403Z,16.48
2022-10-11T21:34:02.802Z,16.45
2022-10-11T21:36:30.198Z,16.21
2022-10-11T21:38:57.810Z,15.70
2022-10-11T21:41:29.188Z,16.01
2022-10-11T21:43:56.902Z,15.75
2022-10-11T21:46:47.696Z,16.26
2022-10-11T21:49:20.952Z,16.31
2022-10-11T21:51:48.173Z,16.41
2022-10-11T21:54:15.481Z,16.18
2022-10-11T21:56:43.143Z,16.32
2022-10-11T21:59:12.785Z,16.25
2022-10-11T22:01:42.087Z,15.49
2022-10-11T22:04:10.359Z,15.46
2022-10-11T22:06:38.615Z,15.39
2022-10-11T22:09:06.964Z,15.67
2022-10-11T22:11:37.481Z,15.56
2022-10-11T22:14:05.199Z,15.64
2022-10-11T22:16:34.393Z,15.87
2022-10-11T22:19:01.789Z,15.96
2022-10-11T22:21:28.949Z,16.09
2022-10-11T22:23:56.292Z,16.12
2022-10-11T22:26:30.955Z,16.20
2022-10-11T22:28:59.421Z,16.23
2022-10-11T22:31:30.201Z,16.13
2022-10-11T22:33:59.872Z,15.64
2022-10-11T22:36:28.875Z,15.84
2022-10-11T22:38:56.395Z,16.19
2022-10-11T22:41:24.201Z,15.85
2022-10-11T22:43:51.855Z,16.19
2022-10-11T22:46:19.110Z,16.06
2022-10-11T22:48:46.487Z,15.63
2022-10-11T22:51:14.776Z,15.51
2022-10-11T22:53:42.220Z,15.63
2022-10-11T22:56:10.848Z,15.84
2022-10-11T22:58:38.363Z,15.50
2022-10-11T23:01:14.643Z,15.90
2022-10-11T23:03:42.367Z,15.90
2022-10-11T23:06:10.053Z,15.69
2022-10-11T23:08:37.615Z,15.72
2022-10-11T23:11:06.469Z,15.46
2022-10-11T23:13:34.581Z,15.67
2022-10-11T23:16:12.307Z,15.88
2022-10-11T23:18:39.883Z,16.15
2022-10-11T23:21:07.502Z,16.14
2022-10-11T23:23:35.165Z,16.16
2022-10-11T23:26:14.785Z,15.84
2022-10-11T23:28:43.551Z,15.70
2022-10-11T23:31:16.934Z,15.37
2022-10-11T23:33:46.007Z,15.45
2022-10-11T23:36:25.122Z,16.08
2022-10-11T23:38:54.733Z,16.07
2022-10-11T23:41:23.492Z,16.05
2022-10-11T23:43:50.928Z,15.93
2022-10-11T23:46:18.207Z,16.01
2022-10-11T23:48:45.838Z,16.06
2022-10-11T23:51:14.267Z,15.93
2022-10-11T23:53:42.645Z,16.08
2022-10-11T23:56:11.797Z,15.90
2022-10-11T23:58:39.227Z,15.92
